sensor_id;sensor_type;location;lat;lon;timestamp;P1;durP1;ratioP1;P2;durP2;ratioP2
75191;SDS011;63771;52.580;9.734;2024-03-06T00:02:04;9.57;;;5.93;;
75191;SDS011;63771;52.580;9.734;2024-03-06T00:04:32;6.37;;;5.63;;
75191;SDS011;63771;52.580;9.734;2024-03-06T00:06:58;7.55;;;5.13;;
75191;SDS011;63771;52.580;9.734;2024-03-06T00:09:24;7.70;;;5.60;;
75191;SDS011;63771;52.580;9.734;2024-03-06T00:11:52;9.15;;;5.82;;
75191;SDS011;63771;52.580;9.734;2024-03-06T00:14:21;8.20;;;6.13;;
75191;SDS011;63771;52.580;9.734;2024-03-06T00:16:48;7.03;;;5.80;;
75191;SDS011;63771;52.580;9.734;2024-03-06T00:19:16;8.77;;;5.18;;
75191;SDS011;63771;52.580;9.734;2024-03-06T00:21:44;8.25;;;5.22;;
75191;SDS011;63771;52.580;9.734;2024-03-06T00:24:15;6.10;;;5.32;;
75191;SDS011;63771;52.580;9.734;2024-03-06T00:26:41;8.52;;;6.35;;
75191;SDS011;63771;52.580;9.734;2024-03-06T00:29:08;8.07;;;5.03;;
75191;SDS011;63771;52.580;9.734;2024-03-06T00:31:34;11.18;;;6.40;;
75191;SDS011;63771;52.580;9.734;2024-03-06T00:33:59;7.80;;;6.47;;
75191;SDS011;63771;52.580;9.734;2024-03-06T00:36:24;9.43;;;5.97;;
75191;SDS011;63771;52.580;9.734;2024-03-06T00:38:50;10.20;;;5.90;;
75191;SDS011;63771;52.580;9.734;2024-03-06T00:41:15;8.48;;;5.55;;
75191;SDS011;63771;52.580;9.734;2024-03-06T00:43:40;7.57;;;6.47;;
75191;SDS011;63771;52.580;9.734;2024-03-06T00:46:06;8.63;;;5.73;;
75191;SDS011;63771;52.580;9.734;2024-03-06T00:48:31;11.25;;;6.05;;
75191;SDS011;63771;52.580;9.734;2024-03-06T00:50:56;8.43;;;5.88;;
75191;SDS011;63771;52.580;9.734;2024-03-06T00:53:22;7.27;;;5.67;;
75191;SDS011;63771;52.580;9.734;2024-03-06T00:55:47;7.97;;;6.17;;
75191;SDS011;63771;52.580;9.734;2024-03-06T00:58:12;9.13;;;6.40;;
75191;SDS011;63771;52.580;9.734;2024-03-06T01:00:38;11.30;;;6.78;;
75191;SDS011;63771;52.580;9.734;2024-03-06T01:03:04;7.40;;;5.82;;
75191;SDS011;63771;52.580;9.734;2024-03-06T01:05:29;8.20;;;6.18;;
75191;SDS011;63771;52.580;9.734;2024-03-06T01:07:55;10.13;;;7.27;;
75191;SDS011;63771;52.580;9.734;2024-03-06T01:10:22;7.95;;;6.63;;
75191;SDS011;63771;52.580;9.734;2024-03-06T01:12:47;12.25;;;6.82;;
75191;SDS011;63771;52.580;9.734;2024-03-06T01:15:13;8.95;;;6.47;;
75191;SDS011;63771;52.580;9.734;2024-03-06T01:17:38;6.95;;;6.00;;
75191;SDS011;63771;52.580;9.734;2024-03-06T01:20:07;11.60;;;7.37;;
75191;SDS011;63771;52.580;9.734;2024-03-06T01:22:35;9.07;;;6.15;;
75191;SDS011;63771;52.580;9.734;2024-03-06T01:25:01;7.80;;;5.65;;
75191;SDS011;63771;52.580;9.734;2024-03-06T01:27:27;7.85;;;6.65;;
75191;SDS011;63771;52.580;9.734;2024-03-06T01:29:52;9.48;;;6.38;;
75191;SDS011;63771;52.580;9.734;2024-03-06T01:32:17;9.43;;;6.33;;
75191;SDS011;63771;52.580;9.734;2024-03-06T01:34:43;15.10;;;6.67;;
75191;SDS011;63771;52.580;9.734;2024-03-06T01:37:08;7.57;;;6.23;;
75191;SDS011;63771;52.580;9.734;2024-03-06T01:39:33;14.55;;;7.03;;
75191;SDS011;63771;52.580;9.734;2024-03-06T01:42:03;9.10;;;7.30;;
75191;SDS011;63771;52.580;9.734;2024-03-06T01:44:29;8.50;;;7.35;;
75191;SDS011;63771;52.580;9.734;2024-03-06T01:46:54;8.93;;;7.30;;
75191;SDS011;63771;52.580;9.734;2024-03-06T01:49:20;9.02;;;7.32;;
75191;SDS011;63771;52.580;9.734;2024-03-06T01:51:56;8.00;;;6.10;;
75191;SDS011;63771;52.580;9.734;2024-03-06T01:54:24;8.80;;;6.95;;
75191;SDS011;63771;52.580;9.734;2024-03-06T01:56:50;9.68;;;7.20;;
75191;SDS011;63771;52.580;9.734;2024-03-06T01:59:16;12.43;;;7.32;;
75191;SDS011;63771;52.580;9.734;2024-03-06T02:01:45;13.00;;;8.18;;
75191;SDS011;63771;52.580;9.734;2024-03-06T02:04:11;12.38;;;7.55;;
75191;SDS011;63771;52.580;9.734;2024-03-06T02:06:41;10.27;;;7.25;;
75191;SDS011;63771;52.580;9.734;2024-03-06T02:09:07;11.60;;;8.05;;
75191;SDS011;63771;52.580;9.734;2024-03-06T02:11:34;8.27;;;6.78;;
75191;SDS011;63771;52.580;9.734;2024-03-06T02:14:00;11.52;;;7.30;;
75191;SDS011;63771;52.580;9.734;2024-03-06T02:16:25;9.15;;;6.80;;
75191;SDS011;63771;52.580;9.734;2024-03-06T02:18:55;10.05;;;6.72;;
75191;SDS011;63771;52.580;9.734;2024-03-06T02:21:22;10.35;;;7.55;;
75191;SDS011;63771;52.580;9.734;2024-03-06T02:23:51;13.32;;;7.85;;
75191;SDS011;63771;52.580;9.734;2024-03-06T02:26:17;11.52;;;7.97;;
75191;SDS011;63771;52.580;9.734;2024-03-06T02:28:47;11.13;;;7.57;;
75191;SDS011;63771;52.580;9.734;2024-03-06T02:31:21;10.25;;;7.25;;
75191;SDS011;63771;52.580;9.734;2024-03-06T02:33:48;10.73;;;7.95;;
75191;SDS011;63771;52.580;9.734;2024-03-06T02:36:14;10.43;;;7.80;;
75191;SDS011;63771;52.580;9.734;2024-03-06T02:38:41;10.98;;;7.43;;
75191;SDS011;63771;52.580;9.734;2024-03-06T02:41:07;10.50;;;7.30;;
75191;SDS011;63771;52.580;9.734;2024-03-06T02:43:33;10.30;;;7.50;;
75191;SDS011;63771;52.580;9.734;2024-03-06T02:45:59;12.35;;;8.45;;
75191;SDS011;63771;52.580;9.734;2024-03-06T02:48:24;11.25;;;7.93;;
75191;SDS011;63771;52.580;9.734;2024-03-06T02:50:49;10.93;;;7.97;;
75191;SDS011;63771;52.580;9.734;2024-03-06T02:53:15;14.98;;;8.07;;
75191;SDS011;63771;52.580;9.734;2024-03-06T02:55:40;9.90;;;7.50;;
75191;SDS011;63771;52.580;9.734;2024-03-06T02:58:05;13.27;;;7.28;;
75191;SDS011;63771;52.580;9.734;2024-03-06T03:00:31;16.37;;;8.93;;
75191;SDS011;63771;52.580;9.734;2024-03-06T03:02:56;13.13;;;8.20;;
75191;SDS011;63771;52.580;9.734;2024-03-06T03:05:22;12.82;;;8.95;;
75191;SDS011;63771;52.580;9.734;2024-03-06T03:07:48;9.85;;;7.57;;
75191;SDS011;63771;52.580;9.734;2024-03-06T03:10:14;10.13;;;8.13;;
75191;SDS011;63771;52.580;9.734;2024-03-06T03:12:39;15.05;;;9.48;;
75191;SDS011;63771;52.580;9.734;2024-03-06T03:15:08;10.98;;;8.20;;
75191;SDS011;63771;52.580;9.734;2024-03-06T03:17:34;12.43;;;8.43;;
75191;SDS011;63771;52.580;9.734;2024-03-06T03:20:00;13.70;;;8.05;;
75191;SDS011;63771;52.580;9.734;2024-03-06T03:22:26;13.05;;;8.63;;
75191;SDS011;63771;52.580;9.734;2024-03-06T03:24:54;14.15;;;8.52;;
75191;SDS011;63771;52.580;9.734;2024-03-06T03:27:19;10.90;;;8.20;;
75191;SDS011;63771;52.580;9.734;2024-03-06T03:29:45;10.63;;;7.73;;
75191;SDS011;63771;52.580;9.734;2024-03-06T03:32:10;13.40;;;8.60;;
75191;SDS011;63771;52.580;9.734;2024-03-06T03:34:35;11.03;;;8.70;;
75191;SDS011;63771;52.580;9.734;2024-03-06T03:37:01;15.02;;;8.40;;
75191;SDS011;63771;52.580;9.734;2024-03-06T03:39:27;13.52;;;8.80;;
75191;SDS011;63771;52.580;9.734;2024-03-06T03:41:52;13.00;;;9.13;;
75191;SDS011;63771;52.580;9.734;2024-03-06T03:44:18;14.90;;;7.80;;
75191;SDS011;63771;52.580;9.734;2024-03-06T03:46:44;13.55;;;8.07;;
75191;SDS011;63771;52.580;9.734;2024-03-06T03:49:10;11.35;;;7.90;;
75191;SDS011;63771;52.580;9.734;2024-03-06T03:51:36;12.73;;;9.02;;
75191;SDS011;63771;52.580;9.734;2024-03-06T03:54:02;12.50;;;8.30;;
75191;SDS011;63771;52.580;9.734;2024-03-06T03:56:28;12.35;;;7.78;;
75191;SDS011;63771;52.580;9.734;2024-03-06T03:58:53;12.80;;;8.17;;
75191;SDS011;63771;52.580;9.734;2024-03-06T04:01:18;13.10;;;8.57;;
75191;SDS011;63771;52.580;9.734;2024-03-06T04:03:44;12.47;;;8.13;;
75191;SDS011;63771;52.580;9.734;2024-03-06T04:06:10;12.87;;;9.13;;
75191;SDS011;63771;52.580;9.734;2024-03-06T04:08:35;13.23;;;8.75;;
75191;SDS011;63771;52.580;9.734;2024-03-06T04:11:01;13.90;;;8.57;;
75191;SDS011;63771;52.580;9.734;2024-03-06T04:13:26;13.10;;;9.63;;
75191;SDS011;63771;52.580;9.734;2024-03-06T04:15:52;13.13;;;8.57;;
75191;SDS011;63771;52.580;9.734;2024-03-06T04:18:17;15.30;;;9.33;;
75191;SDS011;63771;52.580;9.734;2024-03-06T04:20:42;12.47;;;8.03;;
75191;SDS011;63771;52.580;9.734;2024-03-06T04:23:07;14.00;;;8.37;;
75191;SDS011;63771;52.580;9.734;2024-03-06T04:25:33;14.13;;;8.68;;
75191;SDS011;63771;52.580;9.734;2024-03-06T04:27:58;13.95;;;8.98;;
75191;SDS011;63771;52.580;9.734;2024-03-06T04:30:23;18.57;;;7.90;;
75191;SDS011;63771;52.580;9.734;2024-03-06T04:32:50;12.38;;;8.63;;
75191;SDS011;63771;52.580;9.734;2024-03-06T04:35:15;12.20;;;8.10;;
75191;SDS011;63771;52.580;9.734;2024-03-06T04:37:42;11.68;;;7.30;;
75191;SDS011;63771;52.580;9.734;2024-03-06T04:40:08;12.05;;;8.18;;
75191;SDS011;63771;52.580;9.734;2024-03-06T04:42:35;11.18;;;7.85;;
75191;SDS011;63771;52.580;9.734;2024-03-06T04:47:29;12.43;;;8.23;;
75191;SDS011;63771;52.580;9.734;2024-03-06T04:49:55;12.87;;;8.53;;
75191;SDS011;63771;52.580;9.734;2024-03-06T04:52:20;13.40;;;8.87;;
75191;SDS011;63771;52.580;9.734;2024-03-06T04:54:45;12.63;;;8.63;;
75191;SDS011;63771;52.580;9.734;2024-03-06T04:57:11;11.60;;;7.97;;
75191;SDS011;63771;52.580;9.734;2024-03-06T04:59:36;11.43;;;8.13;;
75191;SDS011;63771;52.580;9.734;2024-03-06T05:02:01;15.80;;;9.77;;
75191;SDS011;63771;52.580;9.734;2024-03-06T05:04:28;12.95;;;8.82;;
75191;SDS011;63771;52.580;9.734;2024-03-06T05:06:54;12.43;;;8.93;;
75191;SDS011;63771;52.580;9.734;2024-03-06T05:09:19;13.63;;;8.00;;
75191;SDS011;63771;52.580;9.734;2024-03-06T05:11:44;13.60;;;8.60;;
75191;SDS011;63771;52.580;9.734;2024-03-06T05:14:09;12.80;;;9.20;;
75191;SDS011;63771;52.580;9.734;2024-03-06T05:16:35;13.20;;;8.63;;
75191;SDS011;63771;52.580;9.734;2024-03-06T05:19:00;12.17;;;8.07;;
75191;SDS011;63771;52.580;9.734;2024-03-06T05:21:26;13.68;;;7.47;;
75191;SDS011;63771;52.580;9.734;2024-03-06T05:23:51;13.77;;;8.43;;
75191;SDS011;63771;52.580;9.734;2024-03-06T05:26:17;12.13;;;8.32;;
75191;SDS011;63771;52.580;9.734;2024-03-06T05:28:42;15.30;;;9.15;;
75191;SDS011;63771;52.580;9.734;2024-03-06T05:31:17;12.50;;;8.13;;
75191;SDS011;63771;52.580;9.734;2024-03-06T05:33:44;11.32;;;8.23;;
75191;SDS011;63771;52.580;9.734;2024-03-06T05:36:10;11.90;;;9.35;;
75191;SDS011;63771;52.580;9.734;2024-03-06T05:38:35;14.95;;;9.63;;
75191;SDS011;63771;52.580;9.734;2024-03-06T05:41:01;12.63;;;9.27;;
75191;SDS011;63771;52.580;9.734;2024-03-06T05:43:27;15.18;;;9.30;;
75191;SDS011;63771;52.580;9.734;2024-03-06T05:45:52;10.77;;;7.90;;
75191;SDS011;63771;52.580;9.734;2024-03-06T05:48:18;14.52;;;8.60;;
75191;SDS011;63771;52.580;9.734;2024-03-06T05:50:43;14.32;;;9.75;;
75191;SDS011;63771;52.580;9.734;2024-03-06T05:53:09;13.60;;;8.43;;
75191;SDS011;63771;52.580;9.734;2024-03-06T05:55:36;10.85;;;8.57;;
75191;SDS011;63771;52.580;9.734;2024-03-06T05:58:01;14.23;;;9.50;;
75191;SDS011;63771;52.580;9.734;2024-03-06T06:00:27;10.75;;;7.70;;
75191;SDS011;63771;52.580;9.734;2024-03-06T06:02:52;10.53;;;8.53;;
75191;SDS011;63771;52.580;9.734;2024-03-06T06:05:17;10.73;;;7.47;;
75191;SDS011;63771;52.580;9.734;2024-03-06T06:07:45;15.70;;;9.63;;
75191;SDS011;63771;52.580;9.734;2024-03-06T06:10:10;11.98;;;8.20;;
75191;SDS011;63771;52.580;9.734;2024-03-06T06:12:36;12.30;;;8.95;;
75191;SDS011;63771;52.580;9.734;2024-03-06T06:15:01;13.98;;;8.23;;
75191;SDS011;63771;52.580;9.734;2024-03-06T06:17:27;17.77;;;9.50;;
75191;SDS011;63771;52.580;9.734;2024-03-06T06:19:52;13.38;;;9.07;;
75191;SDS011;63771;52.580;9.734;2024-03-06T06:22:18;14.95;;;8.88;;
75191;SDS011;63771;52.580;9.734;2024-03-06T06:24:43;16.80;;;9.43;;
75191;SDS011;63771;52.580;9.734;2024-03-06T06:27:10;15.00;;;8.02;;
75191;SDS011;63771;52.580;9.734;2024-03-06T06:29:36;16.58;;;9.93;;
75191;SDS011;63771;52.580;9.734;2024-03-06T06:32:01;17.10;;;9.80;;
75191;SDS011;63771;52.580;9.734;2024-03-06T06:34:26;14.63;;;9.63;;
75191;SDS011;63771;52.580;9.734;2024-03-06T06:36:53;15.43;;;9.30;;
75191;SDS011;63771;52.580;9.734;2024-03-06T06:39:18;12.93;;;9.48;;
75191;SDS011;63771;52.580;9.734;2024-03-06T06:41:43;12.95;;;9.55;;
75191;SDS011;63771;52.580;9.734;2024-03-06T06:44:09;12.20;;;10.07;;
75191;SDS011;63771;52.580;9.734;2024-03-06T06:46:34;13.20;;;9.10;;
75191;SDS011;63771;52.580;9.734;2024-03-06T06:48:59;10.43;;;9.00;;
75191;SDS011;63771;52.580;9.734;2024-03-06T06:51:25;12.43;;;9.60;;
75191;SDS011;63771;52.580;9.734;2024-03-06T06:53:50;12.83;;;10.00;;
75191;SDS011;63771;52.580;9.734;2024-03-06T06:56:15;16.97;;;9.00;;
75191;SDS011;63771;52.580;9.734;2024-03-06T06:58:41;14.70;;;10.32;;
75191;SDS011;63771;52.580;9.734;2024-03-06T07:01:08;19.85;;;10.43;;
75191;SDS011;63771;52.580;9.734;2024-03-06T07:03:33;15.30;;;8.67;;
75191;SDS011;63771;52.580;9.734;2024-03-06T07:05:59;12.43;;;9.07;;
75191;SDS011;63771;52.580;9.734;2024-03-06T07:08:24;14.80;;;9.70;;
75191;SDS011;63771;52.580;9.734;2024-03-06T07:10:50;16.55;;;9.90;;
75191;SDS011;63771;52.580;9.734;2024-03-06T07:13:15;13.93;;;9.32;;
75191;SDS011;63771;52.580;9.734;2024-03-06T07:15:42;20.60;;;11.02;;
75191;SDS011;63771;52.580;9.734;2024-03-06T07:18:08;17.27;;;9.47;;
75191;SDS011;63771;52.580;9.734;2024-03-06T07:20:33;16.77;;;9.73;;
75191;SDS011;63771;52.580;9.734;2024-03-06T07:22:58;13.53;;;9.33;;
75191;SDS011;63771;52.580;9.734;2024-03-06T07:25:24;11.97;;;8.40;;
75191;SDS011;63771;52.580;9.734;2024-03-06T07:27:49;12.17;;;8.57;;
75191;SDS011;63771;52.580;9.734;2024-03-06T07:30:14;13.88;;;9.55;;
75191;SDS011;63771;52.580;9.734;2024-03-06T07:32:43;14.02;;;9.50;;
75191;SDS011;63771;52.580;9.734;2024-03-06T07:35:08;15.27;;;9.88;;
75191;SDS011;63771;52.580;9.734;2024-03-06T07:37:39;14.53;;;9.93;;
75191;SDS011;63771;52.580;9.734;2024-03-06T07:40:06;14.23;;;9.07;;
75191;SDS011;63771;52.580;9.734;2024-03-06T07:42:32;14.48;;;9.48;;
75191;SDS011;63771;52.580;9.734;2024-03-06T07:44:58;14.40;;;9.20;;
75191;SDS011;63771;52.580;9.734;2024-03-06T07:47:23;14.95;;;8.68;;
75191;SDS011;63771;52.580;9.734;2024-03-06T07:49:52;15.32;;;10.60;;
75191;SDS011;63771;52.580;9.734;2024-03-06T07:54:43;23.17;;;9.47;;
75191;SDS011;63771;52.580;9.734;2024-03-06T07:57:08;15.35;;;10.10;;
75191;SDS011;63771;52.580;9.734;2024-03-06T07:59:34;16.63;;;10.40;;
75191;SDS011;63771;52.580;9.734;2024-03-06T08:02:00;14.23;;;9.63;;
75191;SDS011;63771;52.580;9.734;2024-03-06T08:04:26;15.90;;;9.38;;
75191;SDS011;63771;52.580;9.734;2024-03-06T08:06:52;15.10;;;8.98;;
75191;SDS011;63771;52.580;9.734;2024-03-06T08:09:17;14.65;;;8.88;;
75191;SDS011;63771;52.580;9.734;2024-03-06T08:11:44;16.20;;;10.57;;
75191;SDS011;63771;52.580;9.734;2024-03-06T08:14:09;16.50;;;10.07;;
75191;SDS011;63771;52.580;9.734;2024-03-06T08:16:35;15.10;;;9.17;;
75191;SDS011;63771;52.580;9.734;2024-03-06T08:19:02;14.93;;;9.63;;
75191;SDS011;63771;52.580;9.734;2024-03-06T08:21:27;16.35;;;9.93;;
75191;SDS011;63771;52.580;9.734;2024-03-06T08:23:53;16.27;;;9.17;;
75191;SDS011;63771;52.580;9.734;2024-03-06T08:26:18;14.15;;;9.57;;
75191;SDS011;63771;52.580;9.734;2024-03-06T08:28:43;15.63;;;10.33;;
75191;SDS011;63771;52.580;9.734;2024-03-06T08:31:09;14.57;;;10.75;;
75191;SDS011;63771;52.580;9.734;2024-03-06T08:33:34;16.23;;;10.00;;
75191;SDS011;63771;52.580;9.734;2024-03-06T08:35:59;13.80;;;8.60;;
75191;SDS011;63771;52.580;9.734;2024-03-06T08:38:25;18.97;;;10.60;;
75191;SDS011;63771;52.580;9.734;2024-03-06T08:40:50;16.67;;;9.40;;
75191;SDS011;63771;52.580;9.734;2024-03-06T08:43:16;15.60;;;9.88;;
75191;SDS011;63771;52.580;9.734;2024-03-06T08:45:41;14.05;;;9.18;;
75191;SDS011;63771;52.580;9.734;2024-03-06T08:48:07;16.08;;;10.55;;
75191;SDS011;63771;52.580;9.734;2024-03-06T08:50:33;16.05;;;10.13;;
75191;SDS011;63771;52.580;9.734;2024-03-06T08:52:58;15.15;;;9.68;;
75191;SDS011;63771;52.580;9.734;2024-03-06T08:55:23;20.70;;;10.88;;
75191;SDS011;63771;52.580;9.734;2024-03-06T08:57:52;16.33;;;9.70;;
75191;SDS011;63771;52.580;9.734;2024-03-06T09:00:17;18.30;;;9.93;;
75191;SDS011;63771;52.580;9.734;2024-03-06T09:02:43;15.00;;;10.07;;
75191;SDS011;63771;52.580;9.734;2024-03-06T09:05:08;13.38;;;9.40;;
75191;SDS011;63771;52.580;9.734;2024-03-06T09:07:37;21.67;;;10.32;;
75191;SDS011;63771;52.580;9.734;2024-03-06T09:10:05;14.25;;;9.65;;
75191;SDS011;63771;52.580;9.734;2024-03-06T09:12:32;15.00;;;10.52;;
75191;SDS011;63771;52.580;9.734;2024-03-06T09:14:57;15.90;;;9.15;;
75191;SDS011;63771;52.580;9.734;2024-03-06T09:17:25;15.77;;;9.52;;
75191;SDS011;63771;52.580;9.734;2024-03-06T09:19:50;14.27;;;8.93;;
75191;SDS011;63771;52.580;9.734;2024-03-06T09:22:16;16.23;;;10.37;;
75191;SDS011;63771;52.580;9.734;2024-03-06T09:24:42;14.55;;;9.77;;
75191;SDS011;63771;52.580;9.734;2024-03-06T09:27:07;16.87;;;9.77;;
75191;SDS011;63771;52.580;9.734;2024-03-06T09:29:33;13.30;;;10.70;;
75191;SDS011;63771;52.580;9.734;2024-03-06T09:31:58;15.30;;;10.20;;
75191;SDS011;63771;52.580;9.734;2024-03-06T09:34:24;16.30;;;9.77;;
75191;SDS011;63771;52.580;9.734;2024-03-06T09:36:49;18.13;;;10.65;;
75191;SDS011;63771;52.580;9.734;2024-03-06T09:39:16;18.27;;;10.10;;
75191;SDS011;63771;52.580;9.734;2024-03-06T09:41:45;15.48;;;10.38;;
75191;SDS011;63771;52.580;9.734;2024-03-06T09:46:49;21.08;;;9.05;;
75191;SDS011;63771;52.580;9.734;2024-03-06T09:49:15;16.05;;;10.73;;
75191;SDS011;63771;52.580;9.734;2024-03-06T09:51:43;15.63;;;9.30;;
75191;SDS011;63771;52.580;9.734;2024-03-06T09:54:14;14.88;;;9.45;;
75191;SDS011;63771;52.580;9.734;2024-03-06T09:56:44;13.15;;;9.57;;
75191;SDS011;63771;52.580;9.734;2024-03-06T09:59:10;17.42;;;10.13;;
75191;SDS011;63771;52.580;9.734;2024-03-06T10:01:38;14.23;;;10.18;;
75191;SDS011;63771;52.580;9.734;2024-03-06T10:04:19;17.45;;;10.65;;
75191;SDS011;63771;52.580;9.734;2024-03-06T10:06:45;16.35;;;11.35;;
75191;SDS011;63771;52.580;9.734;2024-03-06T10:09:18;16.80;;;10.05;;
75191;SDS011;63771;52.580;9.734;2024-03-06T10:11:44;15.15;;;10.68;;
75191;SDS011;63771;52.580;9.734;2024-03-06T10:14:09;17.40;;;10.77;;
75191;SDS011;63771;52.580;9.734;2024-03-06T10:16:59;15.63;;;9.98;;
75191;SDS011;63771;52.580;9.734;2024-03-06T10:19:26;17.10;;;11.05;;
75191;SDS011;63771;52.580;9.734;2024-03-06T10:21:55;16.05;;;10.75;;
75191;SDS011;63771;52.580;9.734;2024-03-06T10:24:22;21.88;;;11.13;;
75191;SDS011;63771;52.580;9.734;2024-03-06T10:26:52;16.05;;;10.57;;
75191;SDS011;63771;52.580;9.734;2024-03-06T10:29:22;14.70;;;9.73;;
75191;SDS011;63771;52.580;9.734;2024-03-06T10:34:19;17.00;;;11.38;;
75191;SDS011;63771;52.580;9.734;2024-03-06T10:36:45;17.30;;;10.18;;
75191;SDS011;63771;52.580;9.734;2024-03-06T10:39:11;17.08;;;9.38;;
75191;SDS011;63771;52.580;9.734;2024-03-06T10:41:40;15.27;;;10.82;;
75191;SDS011;63771;52.580;9.734;2024-03-06T10:44:11;14.02;;;9.95;;
75191;SDS011;63771;52.580;9.734;2024-03-06T10:46:42;18.90;;;9.93;;
75191;SDS011;63771;52.580;9.734;2024-03-06T10:49:09;11.60;;;9.73;;
75191;SDS011;63771;52.580;9.734;2024-03-06T10:51:37;14.23;;;9.80;;
75191;SDS011;63771;52.580;9.734;2024-03-06T10:54:05;14.30;;;10.38;;
75191;SDS011;63771;52.580;9.734;2024-03-06T10:58:59;18.20;;;9.73;;
75191;SDS011;63771;52.580;9.734;2024-03-06T11:01:24;12.18;;;8.82;;
75191;SDS011;63771;52.580;9.734;2024-03-06T11:03:50;15.98;;;10.10;;
75191;SDS011;63771;52.580;9.734;2024-03-06T11:06:17;16.65;;;10.95;;
75191;SDS011;63771;52.580;9.734;2024-03-06T11:08:42;20.08;;;10.10;;
75191;SDS011;63771;52.580;9.734;2024-03-06T11:11:21;17.88;;;10.52;;
75191;SDS011;63771;52.580;9.734;2024-03-06T11:13:47;13.65;;;8.75;;
75191;SDS011;63771;52.580;9.734;2024-03-06T11:16:13;14.35;;;10.70;;
75191;SDS011;63771;52.580;9.734;2024-03-06T11:23:31;16.50;;;9.83;;
75191;SDS011;63771;52.580;9.734;2024-03-06T11:28:29;18.33;;;10.68;;
75191;SDS011;63771;52.580;9.734;2024-03-06T11:31:05;13.05;;;9.35;;
75191;SDS011;63771;52.580;9.734;2024-03-06T11:33:38;17.00;;;10.10;;
75191;SDS011;63771;52.580;9.734;2024-03-06T11:38:59;16.15;;;9.27;;
75191;SDS011;63771;52.580;9.734;2024-03-06T11:41:45;16.60;;;9.93;;
75191;SDS011;63771;52.580;9.734;2024-03-06T11:44:21;17.85;;;9.35;;
75191;SDS011;63771;52.580;9.734;2024-03-06T11:46:48;14.95;;;9.43;;
75191;SDS011;63771;52.580;9.734;2024-03-06T11:49:21;15.07;;;10.32;;
75191;SDS011;63771;52.580;9.734;2024-03-06T11:51:52;16.38;;;11.05;;
75191;SDS011;63771;52.580;9.734;2024-03-06T11:54:19;16.58;;;9.65;;
75191;SDS011;63771;52.580;9.734;2024-03-06T11:56:48;14.38;;;10.10;;
75191;SDS011;63771;52.580;9.734;2024-03-06T11:59:39;19.45;;;10.75;;
75191;SDS011;63771;52.580;9.734;2024-03-06T12:02:05;18.40;;;9.80;;
75191;SDS011;63771;52.580;9.734;2024-03-06T12:04:31;14.23;;;10.05;;
75191;SDS011;63771;52.580;9.734;2024-03-06T12:06:59;18.25;;;10.88;;
75191;SDS011;63771;52.580;9.734;2024-03-06T12:09:25;14.07;;;9.32;;
75191;SDS011;63771;52.580;9.734;2024-03-06T12:11:51;16.60;;;11.20;;
75191;SDS011;63771;52.580;9.734;2024-03-06T12:14:20;15.52;;;10.60;;
75191;SDS011;63771;52.580;9.734;2024-03-06T12:16:59;14.27;;;10.50;;
75191;SDS011;63771;52.580;9.734;2024-03-06T12:19:31;17.42;;;12.05;;
75191;SDS011;63771;52.580;9.734;2024-03-06T12:22:03;21.27;;;10.90;;
75191;SDS011;63771;52.580;9.734;2024-03-06T12:24:29;17.70;;;11.00;;
75191;SDS011;63771;52.580;9.734;2024-03-06T12:27:01;16.50;;;11.43;;
75191;SDS011;63771;52.580;9.734;2024-03-06T12:29:31;13.25;;;9.48;;
75191;SDS011;63771;52.580;9.734;2024-03-06T12:31:57;17.20;;;11.20;;
75191;SDS011;63771;52.580;9.734;2024-03-06T12:34:24;16.63;;;9.82;;
75191;SDS011;63771;52.580;9.734;2024-03-06T12:36:49;21.25;;;13.35;;
75191;SDS011;63771;52.580;9.734;2024-03-06T12:39:15;17.52;;;10.60;;
75191;SDS011;63771;52.580;9.734;2024-03-06T12:41:49;20.90;;;11.23;;
75191;SDS011;63771;52.580;9.734;2024-03-06T12:44:15;14.45;;;11.20;;
75191;SDS011;63771;52.580;9.734;2024-03-06T12:46:44;15.60;;;10.57;;
75191;SDS011;63771;52.580;9.734;2024-03-06T12:49:09;19.63;;;10.27;;
75191;SDS011;63771;52.580;9.734;2024-03-06T12:51:35;20.10;;;11.83;;
75191;SDS011;63771;52.580;9.734;2024-03-06T12:54:00;19.97;;;11.40;;
75191;SDS011;63771;52.580;9.734;2024-03-06T12:56:26;15.95;;;10.55;;
75191;SDS011;63771;52.580;9.734;2024-03-06T12:58:52;15.55;;;10.88;;
75191;SDS011;63771;52.580;9.734;2024-03-06T13:01:17;17.98;;;10.05;;
75191;SDS011;63771;52.580;9.734;2024-03-06T13:03:42;19.45;;;11.05;;
75191;SDS011;63771;52.580;9.734;2024-03-06T13:06:08;15.47;;;11.50;;
75191;SDS011;63771;52.580;9.734;2024-03-06T13:08:33;19.40;;;12.02;;
75191;SDS011;63771;52.580;9.734;2024-03-06T13:11:01;15.47;;;10.43;;
75191;SDS011;63771;52.580;9.734;2024-03-06T13:13:27;15.68;;;9.77;;
75191;SDS011;63771;52.580;9.734;2024-03-06T13:15:56;16.02;;;10.80;;
75191;SDS011;63771;52.580;9.734;2024-03-06T13:18:21;19.65;;;11.02;;
75191;SDS011;63771;52.580;9.734;2024-03-06T13:20:47;15.02;;;11.10;;
75191;SDS011;63771;52.580;9.734;2024-03-06T13:23:12;16.87;;;10.53;;
75191;SDS011;63771;52.580;9.734;2024-03-06T13:25:38;15.48;;;10.73;;
75191;SDS011;63771;52.580;9.734;2024-03-06T13:28:06;16.70;;;10.95;;
75191;SDS011;63771;52.580;9.734;2024-03-06T13:32:57;14.60;;;10.40;;
75191;SDS011;63771;52.580;9.734;2024-03-06T13:35:23;15.15;;;10.07;;
75191;SDS011;63771;52.580;9.734;2024-03-06T13:37:48;17.38;;;11.48;;
75191;SDS011;63771;52.580;9.734;2024-03-06T13:40:16;14.82;;;10.25;;
75191;SDS011;63771;52.580;9.734;2024-03-06T13:42:42;11.98;;;9.88;;
75191;SDS011;63771;52.580;9.734;2024-03-06T13:45:08;14.73;;;10.35;;
75191;SDS011;63771;52.580;9.734;2024-03-06T13:47:41;14.57;;;9.98;;
75191;SDS011;63771;52.580;9.734;2024-03-06T13:50:11;12.98;;;9.45;;
75191;SDS011;63771;52.580;9.734;2024-03-06T13:52:38;16.35;;;9.93;;
75191;SDS011;63771;52.580;9.734;2024-03-06T13:55:04;14.98;;;10.05;;
75191;SDS011;63771;52.580;9.734;2024-03-06T13:57:30;14.65;;;10.23;;
75191;SDS011;63771;52.580;9.734;2024-03-06T13:59:58;14.68;;;9.77;;
75191;SDS011;63771;52.580;9.734;2024-03-06T14:02:24;16.50;;;10.55;;
75191;SDS011;63771;52.580;9.734;2024-03-06T14:04:50;13.33;;;10.17;;
75191;SDS011;63771;52.580;9.734;2024-03-06T14:07:15;16.53;;;10.73;;
75191;SDS011;63771;52.580;9.734;2024-03-06T14:09:40;12.50;;;9.57;;
75191;SDS011;63771;52.580;9.734;2024-03-06T14:12:06;12.33;;;9.90;;
75191;SDS011;63771;52.580;9.734;2024-03-06T14:14:32;16.13;;;10.23;;
75191;SDS011;63771;52.580;9.734;2024-03-06T14:16:57;18.42;;;10.10;;
75191;SDS011;63771;52.580;9.734;2024-03-06T14:19:23;13.93;;;9.45;;
75191;SDS011;63771;52.580;9.734;2024-03-06T14:21:48;10.57;;;9.37;;
75191;SDS011;63771;52.580;9.734;2024-03-06T14:24:14;11.77;;;10.02;;
75191;SDS011;63771;52.580;9.734;2024-03-06T14:26:39;15.35;;;10.80;;
75191;SDS011;63771;52.580;9.734;2024-03-06T14:29:05;14.68;;;9.88;;
75191;SDS011;63771;52.580;9.734;2024-03-06T14:31:32;14.77;;;10.45;;
75191;SDS011;63771;52.580;9.734;2024-03-06T14:33:58;17.52;;;10.15;;
75191;SDS011;63771;52.580;9.734;2024-03-06T14:36:23;12.03;;;8.83;;
75191;SDS011;63771;52.580;9.734;2024-03-06T14:38:52;11.57;;;8.75;;
75191;SDS011;63771;52.580;9.734;2024-03-06T14:41:18;14.23;;;8.48;;
75191;SDS011;63771;52.580;9.734;2024-03-06T14:43:44;17.10;;;9.30;;
75191;SDS011;63771;52.580;9.734;2024-03-06T14:46:10;14.95;;;9.35;;
75191;SDS011;63771;52.580;9.734;2024-03-06T14:48:35;15.25;;;9.57;;
75191;SDS011;63771;52.580;9.734;2024-03-06T14:51:01;15.43;;;10.93;;
75191;SDS011;63771;52.580;9.734;2024-03-06T14:53:26;13.82;;;9.98;;
75191;SDS011;63771;52.580;9.734;2024-03-06T14:55:52;21.05;;;10.02;;